Houghton County Memorial Airport Hancock US
ICAO: KCMX
IATA: CMX
Category: Medium
Scheduled Services: Yes

Elevation: 1095 ft
TransAlt. 18000 ft.

Airport Communications:
ASOS:125.675
MINNEAPOLIS CNTR:127.2
GREEN BAY RDO:122.525
CTAF/UNICOM:122.7

KCMX Zoom In..

If you have problems with the map follow the link
https://www.worldairports.se/pages/airport.php?
ICAO=KCMX

Runways:

(A) RW 07 length 5201 ft width 100 ft
---- / hdg 69

(B) RW 13 length 6500 ft width 150 ft
---- / hdg 133

(C) RW 25 length 5201 ft width 100 ft
---- / hdg 249

(D) RW 31 length 6500 ft width 150 ft
ILS 110.30 / hdg 313

Location; KCMX
Day. 10 / Time. 01.53 Zulu
* Altimeter: 29.61
* Temperature: -10° c. -14°f.
* Wind from: 350° Speed 17 kn with Gusts up to 25 kn.
Dewpoint: -13° c.
Visibility: 3/4 Statute Miles.
Conditions: Haze.

KCMX 100153Z AUTO 35017G25KT 3/4SM HZ VV008 M10/M13 A2961 RMK AO2 PK WND 35026/0106 SLP047 T11001128 PWINO FZRANO $


Wind From 350°
Speed 17 kn.

 
 
jpsmedia worldairports.se 2019   terms of use